sensor_id;sensor_type;location;lat;lon;timestamp;P1;durP1;ratioP1;P2;durP2;ratioP2
9559;SDS011;4818;50.860;4.648;2022-12-07T00:01:08;19.17;;;8.57;;
9559;SDS011;4818;50.860;4.648;2022-12-07T00:03:35;19.38;;;9.23;;
9559;SDS011;4818;50.860;4.648;2022-12-07T00:06:01;18.13;;;9.52;;
9559;SDS011;4818;50.860;4.648;2022-12-07T00:08:28;18.33;;;10.55;;
9559;SDS011;4818;50.860;4.648;2022-12-07T00:10:54;15.80;;;9.50;;
9559;SDS011;4818;50.860;4.648;2022-12-07T00:13:20;17.40;;;9.38;;
9559;SDS011;4818;50.860;4.648;2022-12-07T00:15:46;13.05;;;8.63;;
9559;SDS011;4818;50.860;4.648;2022-12-07T00:18:13;15.85;;;9.23;;
9559;SDS011;4818;50.860;4.648;2022-12-07T00:20:39;15.85;;;10.38;;
9559;SDS011;4818;50.860;4.648;2022-12-07T00:23:05;17.85;;;10.18;;
9559;SDS011;4818;50.860;4.648;2022-12-07T00:25:31;19.23;;;10.55;;
9559;SDS011;4818;50.860;4.648;2022-12-07T00:27:57;17.92;;;10.40;;
9559;SDS011;4818;50.860;4.648;2022-12-07T00:30:23;20.63;;;11.50;;
9559;SDS011;4818;50.860;4.648;2022-12-07T00:32:49;15.60;;;10.77;;
9559;SDS011;4818;50.860;4.648;2022-12-07T00:35:15;19.95;;;10.70;;
9559;SDS011;4818;50.860;4.648;2022-12-07T00:37:42;16.67;;;10.02;;
9559;SDS011;4818;50.860;4.648;2022-12-07T00:40:08;18.00;;;10.05;;
9559;SDS011;4818;50.860;4.648;2022-12-07T00:42:34;16.23;;;9.15;;
9559;SDS011;4818;50.860;4.648;2022-12-07T00:45:00;19.23;;;9.60;;
9559;SDS011;4818;50.860;4.648;2022-12-07T00:47:26;16.85;;;8.70;;
9559;SDS011;4818;50.860;4.648;2022-12-07T00:49:52;14.73;;;9.43;;
9559;SDS011;4818;50.860;4.648;2022-12-07T00:52:18;16.58;;;8.85;;
9559;SDS011;4818;50.860;4.648;2022-12-07T00:54:44;17.65;;;10.35;;
9559;SDS011;4818;50.860;4.648;2022-12-07T00:57:10;20.30;;;10.32;;
9559;SDS011;4818;50.860;4.648;2022-12-07T00:59:36;20.73;;;10.82;;
9559;SDS011;4818;50.860;4.648;2022-12-07T01:02:02;17.45;;;9.88;;
9559;SDS011;4818;50.860;4.648;2022-12-07T01:04:28;18.30;;;9.98;;
9559;SDS011;4818;50.860;4.648;2022-12-07T01:06:55;22.15;;;10.77;;
9559;SDS011;4818;50.860;4.648;2022-12-07T01:09:21;19.85;;;10.55;;
9559;SDS011;4818;50.860;4.648;2022-12-07T01:11:47;20.65;;;10.30;;
9559;SDS011;4818;50.860;4.648;2022-12-07T01:14:13;19.52;;;10.73;;
9559;SDS011;4818;50.860;4.648;2022-12-07T01:16:39;20.30;;;11.55;;
9559;SDS011;4818;50.860;4.648;2022-12-07T01:19:05;17.20;;;11.63;;
9559;SDS011;4818;50.860;4.648;2022-12-07T01:21:32;18.73;;;10.85;;
9559;SDS011;4818;50.860;4.648;2022-12-07T01:24:03;18.08;;;11.02;;
9559;SDS011;4818;50.860;4.648;2022-12-07T01:26:29;18.45;;;10.80;;
9559;SDS011;4818;50.860;4.648;2022-12-07T01:28:55;20.65;;;12.20;;
9559;SDS011;4818;50.860;4.648;2022-12-07T01:31:24;20.85;;;12.35;;
9559;SDS011;4818;50.860;4.648;2022-12-07T01:33:52;23.70;;;12.30;;
9559;SDS011;4818;50.860;4.648;2022-12-07T01:36:19;24.15;;;11.27;;
9559;SDS011;4818;50.860;4.648;2022-12-07T01:38:46;20.60;;;10.77;;
9559;SDS011;4818;50.860;4.648;2022-12-07T01:41:12;20.70;;;11.70;;
9559;SDS011;4818;50.860;4.648;2022-12-07T01:46:28;21.85;;;11.80;;
9559;SDS011;4818;50.860;4.648;2022-12-07T01:48:54;22.50;;;12.10;;
9559;SDS011;4818;50.860;4.648;2022-12-07T01:51:20;28.60;;;12.68;;
9559;SDS011;4818;50.860;4.648;2022-12-07T01:53:46;22.75;;;12.25;;
9559;SDS011;4818;50.860;4.648;2022-12-07T01:56:17;16.95;;;11.35;;
9559;SDS011;4818;50.860;4.648;2022-12-07T01:58:44;21.30;;;12.93;;
9559;SDS011;4818;50.860;4.648;2022-12-07T02:01:10;23.30;;;13.05;;
9559;SDS011;4818;50.860;4.648;2022-12-07T02:03:41;25.20;;;13.55;;
9559;SDS011;4818;50.860;4.648;2022-12-07T02:06:08;20.55;;;13.20;;
9559;SDS011;4818;50.860;4.648;2022-12-07T02:08:35;18.73;;;12.23;;
9559;SDS011;4818;50.860;4.648;2022-12-07T02:11:02;25.67;;;14.07;;
9559;SDS011;4818;50.860;4.648;2022-12-07T02:13:30;25.75;;;14.45;;
9559;SDS011;4818;50.860;4.648;2022-12-07T02:21:14;23.85;;;14.43;;
9559;SDS011;4818;50.860;4.648;2022-12-07T02:23:59;25.73;;;14.68;;
9559;SDS011;4818;50.860;4.648;2022-12-07T02:26:38;25.38;;;14.15;;
9559;SDS011;4818;50.860;4.648;2022-12-07T02:29:27;24.88;;;14.32;;
9559;SDS011;4818;50.860;4.648;2022-12-07T02:34:39;24.85;;;13.80;;
9559;SDS011;4818;50.860;4.648;2022-12-07T02:37:09;24.90;;;14.82;;
9559;SDS011;4818;50.860;4.648;2022-12-07T02:39:50;22.20;;;12.80;;
9559;SDS011;4818;50.860;4.648;2022-12-07T02:42:19;25.95;;;14.32;;
9559;SDS011;4818;50.860;4.648;2022-12-07T02:44:48;24.83;;;14.10;;
9559;SDS011;4818;50.860;4.648;2022-12-07T02:47:15;27.35;;;13.85;;
9559;SDS011;4818;50.860;4.648;2022-12-07T02:49:42;24.05;;;14.07;;
9559;SDS011;4818;50.860;4.648;2022-12-07T02:52:09;19.70;;;12.57;;
9559;SDS011;4818;50.860;4.648;2022-12-07T02:54:35;26.60;;;15.23;;
9559;SDS011;4818;50.860;4.648;2022-12-07T03:12:36;20.55;;;13.23;;
9559;SDS011;4818;50.860;4.648;2022-12-07T03:15:05;25.35;;;13.50;;
9559;SDS011;4818;50.860;4.648;2022-12-07T03:17:35;21.17;;;12.95;;
9559;SDS011;4818;50.860;4.648;2022-12-07T03:20:04;20.98;;;12.13;;
9559;SDS011;4818;50.860;4.648;2022-12-07T03:22:32;23.55;;;13.65;;
9559;SDS011;4818;50.860;4.648;2022-12-07T03:25:01;19.75;;;12.32;;
9559;SDS011;4818;50.860;4.648;2022-12-07T03:27:30;22.63;;;12.23;;
9559;SDS011;4818;50.860;4.648;2022-12-07T03:32:59;18.02;;;12.25;;
9559;SDS011;4818;50.860;4.648;2022-12-07T03:35:24;22.27;;;12.98;;
9559;SDS011;4818;50.860;4.648;2022-12-07T03:42:43;26.48;;;13.82;;
9559;SDS011;4818;50.860;4.648;2022-12-07T03:45:09;23.27;;;12.60;;
9559;SDS011;4818;50.860;4.648;2022-12-07T03:50:37;23.77;;;13.93;;
9559;SDS011;4818;50.860;4.648;2022-12-07T03:53:11;25.00;;;13.60;;
9559;SDS011;4818;50.860;4.648;2022-12-07T03:55:40;22.75;;;13.63;;
9559;SDS011;4818;50.860;4.648;2022-12-07T03:58:09;24.67;;;12.82;;
9559;SDS011;4818;50.860;4.648;2022-12-07T04:00:36;22.15;;;13.13;;
9559;SDS011;4818;50.860;4.648;2022-12-07T04:03:02;21.27;;;12.77;;
9559;SDS011;4818;50.860;4.648;2022-12-07T04:05:28;23.63;;;11.45;;
9559;SDS011;4818;50.860;4.648;2022-12-07T04:07:55;20.73;;;10.80;;
9559;SDS011;4818;50.860;4.648;2022-12-07T04:10:21;24.35;;;11.60;;
9559;SDS011;4818;50.860;4.648;2022-12-07T04:12:47;16.90;;;11.55;;
9559;SDS011;4818;50.860;4.648;2022-12-07T04:15:13;19.60;;;11.38;;
9559;SDS011;4818;50.860;4.648;2022-12-07T04:17:39;23.27;;;11.40;;
9559;SDS011;4818;50.860;4.648;2022-12-07T04:20:05;19.90;;;10.88;;
9559;SDS011;4818;50.860;4.648;2022-12-07T04:22:31;19.35;;;11.57;;
9559;SDS011;4818;50.860;4.648;2022-12-07T04:24:57;19.02;;;10.68;;
9559;SDS011;4818;50.860;4.648;2022-12-07T04:27:24;18.35;;;10.98;;
9559;SDS011;4818;50.860;4.648;2022-12-07T04:29:50;15.82;;;10.43;;
9559;SDS011;4818;50.860;4.648;2022-12-07T04:32:16;23.38;;;11.40;;
9559;SDS011;4818;50.860;4.648;2022-12-07T04:34:42;20.85;;;10.93;;
9559;SDS011;4818;50.860;4.648;2022-12-07T04:37:08;20.85;;;10.15;;
9559;SDS011;4818;50.860;4.648;2022-12-07T04:39:34;18.75;;;10.07;;
9559;SDS011;4818;50.860;4.648;2022-12-07T04:42:01;18.60;;;10.55;;
9559;SDS011;4818;50.860;4.648;2022-12-07T04:44:27;15.20;;;9.85;;
9559;SDS011;4818;50.860;4.648;2022-12-07T04:46:54;16.35;;;9.88;;
9559;SDS011;4818;50.860;4.648;2022-12-07T04:49:20;19.50;;;10.65;;
9559;SDS011;4818;50.860;4.648;2022-12-07T04:51:46;18.88;;;10.60;;
9559;SDS011;4818;50.860;4.648;2022-12-07T04:54:13;18.42;;;10.02;;
9559;SDS011;4818;50.860;4.648;2022-12-07T04:56:40;15.55;;;10.07;;
9559;SDS011;4818;50.860;4.648;2022-12-07T04:59:06;18.15;;;10.75;;
9559;SDS011;4818;50.860;4.648;2022-12-07T05:01:33;18.08;;;9.65;;
9559;SDS011;4818;50.860;4.648;2022-12-07T05:03:59;20.35;;;10.85;;
9559;SDS011;4818;50.860;4.648;2022-12-07T05:06:25;18.95;;;10.50;;
9559;SDS011;4818;50.860;4.648;2022-12-07T05:08:51;20.80;;;9.80;;
9559;SDS011;4818;50.860;4.648;2022-12-07T05:11:17;16.95;;;10.65;;
9559;SDS011;4818;50.860;4.648;2022-12-07T05:14:03;19.27;;;10.95;;
9559;SDS011;4818;50.860;4.648;2022-12-07T05:16:29;16.63;;;10.20;;
9559;SDS011;4818;50.860;4.648;2022-12-07T05:18:55;15.30;;;10.20;;
9559;SDS011;4818;50.860;4.648;2022-12-07T05:21:21;16.23;;;8.80;;
9559;SDS011;4818;50.860;4.648;2022-12-07T05:23:48;17.83;;;9.90;;
9559;SDS011;4818;50.860;4.648;2022-12-07T05:26:14;16.25;;;9.35;;
9559;SDS011;4818;50.860;4.648;2022-12-07T05:28:40;18.52;;;10.13;;
9559;SDS011;4818;50.860;4.648;2022-12-07T05:31:06;16.67;;;9.75;;
9559;SDS011;4818;50.860;4.648;2022-12-07T05:33:32;24.10;;;10.68;;
9559;SDS011;4818;50.860;4.648;2022-12-07T05:35:58;19.63;;;10.32;;
9559;SDS011;4818;50.860;4.648;2022-12-07T05:38:30;19.80;;;10.43;;
9559;SDS011;4818;50.860;4.648;2022-12-07T05:40:59;18.77;;;10.15;;
9559;SDS011;4818;50.860;4.648;2022-12-07T05:45:52;18.67;;;11.18;;
9559;SDS011;4818;50.860;4.648;2022-12-07T05:48:18;19.63;;;11.02;;
9559;SDS011;4818;50.860;4.648;2022-12-07T05:50:44;26.02;;;12.02;;
9559;SDS011;4818;50.860;4.648;2022-12-07T05:53:13;21.40;;;11.93;;
9559;SDS011;4818;50.860;4.648;2022-12-07T05:55:39;18.23;;;10.65;;
9559;SDS011;4818;50.860;4.648;2022-12-07T05:58:05;23.75;;;11.30;;
9559;SDS011;4818;50.860;4.648;2022-12-07T06:00:49;17.90;;;10.50;;
9559;SDS011;4818;50.860;4.648;2022-12-07T06:03:15;24.50;;;12.23;;
9559;SDS011;4818;50.860;4.648;2022-12-07T06:05:41;20.42;;;11.10;;
9559;SDS011;4818;50.860;4.648;2022-12-07T06:08:07;22.33;;;10.02;;
9559;SDS011;4818;50.860;4.648;2022-12-07T06:10:33;20.42;;;11.93;;
9559;SDS011;4818;50.860;4.648;2022-12-07T06:12:59;20.60;;;11.68;;
9559;SDS011;4818;50.860;4.648;2022-12-07T06:15:26;21.20;;;12.48;;
9559;SDS011;4818;50.860;4.648;2022-12-07T06:17:52;23.38;;;11.02;;
9559;SDS011;4818;50.860;4.648;2022-12-07T06:20:18;17.25;;;12.20;;
9559;SDS011;4818;50.860;4.648;2022-12-07T06:22:44;19.80;;;11.52;;
9559;SDS011;4818;50.860;4.648;2022-12-07T06:25:10;19.80;;;12.05;;
9559;SDS011;4818;50.860;4.648;2022-12-07T06:27:36;20.77;;;11.57;;
9559;SDS011;4818;50.860;4.648;2022-12-07T06:30:03;21.25;;;12.05;;
9559;SDS011;4818;50.860;4.648;2022-12-07T06:32:32;22.25;;;12.70;;
9559;SDS011;4818;50.860;4.648;2022-12-07T06:34:58;20.83;;;13.20;;
9559;SDS011;4818;50.860;4.648;2022-12-07T06:37:24;25.52;;;12.55;;
9559;SDS011;4818;50.860;4.648;2022-12-07T06:39:51;24.25;;;12.48;;
9559;SDS011;4818;50.860;4.648;2022-12-07T06:42:17;17.90;;;11.80;;
9559;SDS011;4818;50.860;4.648;2022-12-07T06:44:43;25.67;;;12.57;;
9559;SDS011;4818;50.860;4.648;2022-12-07T06:47:09;25.48;;;12.50;;
9559;SDS011;4818;50.860;4.648;2022-12-07T06:49:36;22.75;;;12.18;;
9559;SDS011;4818;50.860;4.648;2022-12-07T06:52:02;16.80;;;10.57;;
9559;SDS011;4818;50.860;4.648;2022-12-07T06:54:30;19.85;;;11.88;;
9559;SDS011;4818;50.860;4.648;2022-12-07T06:56:56;18.63;;;10.80;;
9559;SDS011;4818;50.860;4.648;2022-12-07T06:59:22;16.02;;;10.98;;
9559;SDS011;4818;50.860;4.648;2022-12-07T07:01:49;17.02;;;10.73;;
9559;SDS011;4818;50.860;4.648;2022-12-07T07:04:15;17.38;;;11.57;;
9559;SDS011;4818;50.860;4.648;2022-12-07T07:06:41;20.02;;;11.13;;
9559;SDS011;4818;50.860;4.648;2022-12-07T07:09:07;23.10;;;12.75;;
9559;SDS011;4818;50.860;4.648;2022-12-07T07:11:34;21.40;;;11.40;;
9559;SDS011;4818;50.860;4.648;2022-12-07T07:14:00;21.40;;;11.10;;
9559;SDS011;4818;50.860;4.648;2022-12-07T07:16:28;18.30;;;10.70;;
9559;SDS011;4818;50.860;4.648;2022-12-07T07:18:55;23.63;;;13.07;;
9559;SDS011;4818;50.860;4.648;2022-12-07T07:21:21;25.40;;;12.07;;
9559;SDS011;4818;50.860;4.648;2022-12-07T07:23:47;27.75;;;11.88;;
9559;SDS011;4818;50.860;4.648;2022-12-07T07:26:13;23.88;;;12.73;;
9559;SDS011;4818;50.860;4.648;2022-12-07T07:28:39;25.88;;;12.20;;
9559;SDS011;4818;50.860;4.648;2022-12-07T07:31:05;24.58;;;11.35;;
9559;SDS011;4818;50.860;4.648;2022-12-07T07:33:32;22.20;;;11.70;;
9559;SDS011;4818;50.860;4.648;2022-12-07T07:35:58;31.05;;;12.68;;
9559;SDS011;4818;50.860;4.648;2022-12-07T07:38:24;21.80;;;10.60;;
9559;SDS011;4818;50.860;4.648;2022-12-07T07:40:50;20.40;;;11.15;;
9559;SDS011;4818;50.860;4.648;2022-12-07T07:43:16;30.15;;;12.50;;
9559;SDS011;4818;50.860;4.648;2022-12-07T07:45:43;19.02;;;9.75;;
9559;SDS011;4818;50.860;4.648;2022-12-07T07:48:09;23.65;;;10.50;;
9559;SDS011;4818;50.860;4.648;2022-12-07T07:50:35;30.02;;;11.43;;
9559;SDS011;4818;50.860;4.648;2022-12-07T07:53:02;26.38;;;11.77;;
9559;SDS011;4818;50.860;4.648;2022-12-07T07:55:28;23.05;;;11.18;;
9559;SDS011;4818;50.860;4.648;2022-12-07T07:57:54;17.15;;;9.38;;
9559;SDS011;4818;50.860;4.648;2022-12-07T08:00:20;23.23;;;11.38;;
9559;SDS011;4818;50.860;4.648;2022-12-07T08:02:47;17.15;;;10.63;;
9559;SDS011;4818;50.860;4.648;2022-12-07T08:05:13;21.50;;;10.50;;
9559;SDS011;4818;50.860;4.648;2022-12-07T08:07:39;25.20;;;10.10;;
9559;SDS011;4818;50.860;4.648;2022-12-07T08:10:06;23.42;;;10.00;;
9559;SDS011;4818;50.860;4.648;2022-12-07T08:12:35;18.35;;;9.00;;
9559;SDS011;4818;50.860;4.648;2022-12-07T08:15:02;19.45;;;9.73;;
9559;SDS011;4818;50.860;4.648;2022-12-07T08:17:28;20.83;;;8.75;;
9559;SDS011;4818;50.860;4.648;2022-12-07T08:19:54;19.33;;;8.30;;
9559;SDS011;4818;50.860;4.648;2022-12-07T08:22:21;14.63;;;7.90;;
9559;SDS011;4818;50.860;4.648;2022-12-07T08:24:47;18.45;;;9.13;;
9559;SDS011;4818;50.860;4.648;2022-12-07T08:27:13;14.23;;;8.57;;
9559;SDS011;4818;50.860;4.648;2022-12-07T08:29:40;18.67;;;8.38;;
9559;SDS011;4818;50.860;4.648;2022-12-07T08:32:06;16.90;;;10.23;;
9559;SDS011;4818;50.860;4.648;2022-12-07T08:34:35;22.08;;;13.02;;
9559;SDS011;4818;50.860;4.648;2022-12-07T08:37:02;32.45;;;15.00;;
9559;SDS011;4818;50.860;4.648;2022-12-07T08:39:28;18.70;;;10.85;;
9559;SDS011;4818;50.860;4.648;2022-12-07T08:41:54;14.35;;;7.55;;
9559;SDS011;4818;50.860;4.648;2022-12-07T08:44:21;12.70;;;5.70;;
9559;SDS011;4818;50.860;4.648;2022-12-07T08:46:51;9.38;;;5.38;;
9559;SDS011;4818;50.860;4.648;2022-12-07T08:49:20;12.90;;;5.20;;
9559;SDS011;4818;50.860;4.648;2022-12-07T08:51:48;21.15;;;5.88;;
9559;SDS011;4818;50.860;4.648;2022-12-07T08:54:15;11.98;;;5.55;;
9559;SDS011;4818;50.860;4.648;2022-12-07T08:56:41;18.45;;;5.57;;
9559;SDS011;4818;50.860;4.648;2022-12-07T08:59:08;10.57;;;4.95;;
9559;SDS011;4818;50.860;4.648;2022-12-07T09:01:34;15.30;;;5.65;;
9559;SDS011;4818;50.860;4.648;2022-12-07T09:04:00;9.35;;;4.13;;
9559;SDS011;4818;50.860;4.648;2022-12-07T09:06:27;8.55;;;4.90;;
9559;SDS011;4818;50.860;4.648;2022-12-07T09:08:54;10.70;;;4.70;;
9559;SDS011;4818;50.860;4.648;2022-12-07T09:11:21;11.55;;;4.30;;
9559;SDS011;4818;50.860;4.648;2022-12-07T09:13:47;14.02;;;5.38;;
9559;SDS011;4818;50.860;4.648;2022-12-07T09:16:13;13.00;;;5.75;;
9559;SDS011;4818;50.860;4.648;2022-12-07T09:18:39;8.32;;;5.00;;
9559;SDS011;4818;50.860;4.648;2022-12-07T09:21:06;12.25;;;5.20;;
9559;SDS011;4818;50.860;4.648;2022-12-07T09:23:33;10.40;;;5.68;;
9559;SDS011;4818;50.860;4.648;2022-12-07T09:26:00;11.80;;;4.93;;
9559;SDS011;4818;50.860;4.648;2022-12-07T09:28:26;11.48;;;5.45;;
9559;SDS011;4818;50.860;4.648;2022-12-07T09:30:52;14.73;;;5.57;;
9559;SDS011;4818;50.860;4.648;2022-12-07T09:33:18;12.02;;;5.32;;
9559;SDS011;4818;50.860;4.648;2022-12-07T09:35:45;17.20;;;6.30;;
9559;SDS011;4818;50.860;4.648;2022-12-07T09:38:11;11.50;;;6.25;;
9559;SDS011;4818;50.860;4.648;2022-12-07T09:40:38;16.63;;;6.38;;
9559;SDS011;4818;50.860;4.648;2022-12-07T09:43:04;17.17;;;7.55;;
9559;SDS011;4818;50.860;4.648;2022-12-07T09:45:32;25.30;;;7.25;;
9559;SDS011;4818;50.860;4.648;2022-12-07T09:47:59;26.95;;;7.55;;
9559;SDS011;4818;50.860;4.648;2022-12-07T09:50:26;17.83;;;8.57;;
9559;SDS011;4818;50.860;4.648;2022-12-07T09:52:54;14.50;;;6.43;;
9559;SDS011;4818;50.860;4.648;2022-12-07T09:55:30;21.65;;;8.57;;
9559;SDS011;4818;50.860;4.648;2022-12-07T09:57:57;25.52;;;7.47;;
9559;SDS011;4818;50.860;4.648;2022-12-07T10:00:24;20.35;;;7.47;;
9559;SDS011;4818;50.860;4.648;2022-12-07T10:02:53;24.30;;;7.68;;
9559;SDS011;4818;50.860;4.648;2022-12-07T10:05:22;24.23;;;8.55;;
9559;SDS011;4818;50.860;4.648;2022-12-07T10:07:49;14.55;;;6.60;;
9559;SDS011;4818;50.860;4.648;2022-12-07T10:10:17;12.80;;;6.70;;
9559;SDS011;4818;50.860;4.648;2022-12-07T10:12:56;16.00;;;6.38;;
9559;SDS011;4818;50.860;4.648;2022-12-07T10:15:23;10.30;;;6.32;;
9559;SDS011;4818;50.860;4.648;2022-12-07T10:17:50;13.38;;;7.20;;
9559;SDS011;4818;50.860;4.648;2022-12-07T10:20:24;15.10;;;6.00;;
9559;SDS011;4818;50.860;4.648;2022-12-07T10:25:21;24.20;;;5.82;;
9559;SDS011;4818;50.860;4.648;2022-12-07T10:27:57;26.83;;;5.25;;
9559;SDS011;4818;50.860;4.648;2022-12-07T10:30:24;9.00;;;4.05;;
9559;SDS011;4818;50.860;4.648;2022-12-07T10:32:50;8.00;;;3.45;;
9559;SDS011;4818;50.860;4.648;2022-12-07T10:35:21;11.43;;;4.28;;
9559;SDS011;4818;50.860;4.648;2022-12-07T10:37:48;11.68;;;4.20;;
9559;SDS011;4818;50.860;4.648;2022-12-07T10:40:26;15.65;;;4.28;;
9559;SDS011;4818;50.860;4.648;2022-12-07T10:53:20;6.32;;;3.15;;
9559;SDS011;4818;50.860;4.648;2022-12-07T11:01:29;7.95;;;3.40;;
9559;SDS011;4818;50.860;4.648;2022-12-07T11:12:01;12.82;;;4.18;;
9559;SDS011;4818;50.860;4.648;2022-12-07T11:17:09;14.10;;;4.40;;
9559;SDS011;4818;50.860;4.648;2022-12-07T11:19:47;12.05;;;4.40;;
9559;SDS011;4818;50.860;4.648;2022-12-07T11:22:20;9.60;;;4.18;;
9559;SDS011;4818;50.860;4.648;2022-12-07T11:24:57;8.60;;;3.58;;
9559;SDS011;4818;50.860;4.648;2022-12-07T11:30:00;9.50;;;3.10;;
9559;SDS011;4818;50.860;4.648;2022-12-07T11:37:41;7.57;;;2.97;;
9559;SDS011;4818;50.860;4.648;2022-12-07T11:40:13;11.30;;;2.97;;
9559;SDS011;4818;50.860;4.648;2022-12-07T11:42:41;10.80;;;3.05;;
9559;SDS011;4818;50.860;4.648;2022-12-07T11:50:26;5.88;;;2.35;;
9559;SDS011;4818;50.860;4.648;2022-12-07T11:55:30;7.18;;;2.50;;
9559;SDS011;4818;50.860;4.648;2022-12-07T11:58:03;10.15;;;2.38;;
9559;SDS011;4818;50.860;4.648;2022-12-07T12:00:30;4.88;;;1.95;;
9559;SDS011;4818;50.860;4.648;2022-12-07T12:03:12;8.52;;;2.00;;
9559;SDS011;4818;50.860;4.648;2022-12-07T12:05:41;9.38;;;2.60;;
9559;SDS011;4818;50.860;4.648;2022-12-07T12:10:58;7.72;;;2.17;;
9559;SDS011;4818;50.860;4.648;2022-12-07T12:13:48;7.90;;;2.75;;
9559;SDS011;4818;50.860;4.648;2022-12-07T12:16:31;5.18;;;2.22;;
9559;SDS011;4818;50.860;4.648;2022-12-07T12:21:47;5.35;;;2.60;;
9559;SDS011;4818;50.860;4.648;2022-12-07T12:24:18;10.68;;;2.60;;
9559;SDS011;4818;50.860;4.648;2022-12-07T12:26:50;10.07;;;2.72;;
9559;SDS011;4818;50.860;4.648;2022-12-07T12:29:28;6.57;;;3.17;;
9559;SDS011;4818;50.860;4.648;2022-12-07T12:32:18;11.05;;;2.78;;
9559;SDS011;4818;50.860;4.648;2022-12-07T12:35:00;7.15;;;1.67;;
9559;SDS011;4818;50.860;4.648;2022-12-07T12:42:44;5.82;;;1.73;;
9559;SDS011;4818;50.860;4.648;2022-12-07T12:45:18;7.97;;;2.30;;
9559;SDS011;4818;50.860;4.648;2022-12-07T12:50:21;5.95;;;1.23;;
9559;SDS011;4818;50.860;4.648;2022-12-07T12:52:50;4.93;;;1.42;;
9559;SDS011;4818;50.860;4.648;2022-12-07T12:55:18;6.50;;;1.58;;
9559;SDS011;4818;50.860;4.648;2022-12-07T12:57:46;5.70;;;1.67;;
9559;SDS011;4818;50.860;4.648;2022-12-07T13:02:47;9.15;;;1.98;;
9559;SDS011;4818;50.860;4.648;2022-12-07T13:05:16;9.45;;;1.85;;
9559;SDS011;4818;50.860;4.648;2022-12-07T13:12:55;5.70;;;1.50;;
9559;SDS011;4818;50.860;4.648;2022-12-07T13:18:01;6.97;;;1.20;;
9559;SDS011;4818;50.860;4.648;2022-12-07T13:20:43;3.05;;;1.38;;
9559;SDS011;4818;50.860;4.648;2022-12-07T13:23:09;6.70;;;1.00;;
9559;SDS011;4818;50.860;4.648;2022-12-07T13:25:38;8.00;;;0.90;;
9559;SDS011;4818;50.860;4.648;2022-12-07T13:28:16;6.53;;;0.63;;
9559;SDS011;4818;50.860;4.648;2022-12-07T13:30:45;5.50;;;1.05;;
9559;SDS011;4818;50.860;4.648;2022-12-07T13:33:12;7.97;;;1.00;;
9559;SDS011;4818;50.860;4.648;2022-12-07T13:35:38;3.42;;;0.80;;
9559;SDS011;4818;50.860;4.648;2022-12-07T13:38:13;5.13;;;1.23;;
9559;SDS011;4818;50.860;4.648;2022-12-07T13:40:41;3.35;;;0.68;;
9559;SDS011;4818;50.860;4.648;2022-12-07T13:43:14;4.28;;;0.75;;
9559;SDS011;4818;50.860;4.648;2022-12-07T13:45:41;3.60;;;1.00;;
9559;SDS011;4818;50.860;4.648;2022-12-07T13:48:15;3.83;;;0.50;;
9559;SDS011;4818;50.860;4.648;2022-12-07T13:50:41;7.80;;;1.00;;
9559;SDS011;4818;50.860;4.648;2022-12-07T13:53:11;2.88;;;0.80;;
9559;SDS011;4818;50.860;4.648;2022-12-07T13:55:43;2.78;;;0.85;;
9559;SDS011;4818;50.860;4.648;2022-12-07T13:58:10;2.58;;;0.90;;
9559;SDS011;4818;50.860;4.648;2022-12-07T14:00:36;6.80;;;1.55;;
9559;SDS011;4818;50.860;4.648;2022-12-07T14:03:03;8.30;;;0.95;;
9559;SDS011;4818;50.860;4.648;2022-12-07T14:05:34;5.43;;;0.95;;
9559;SDS011;4818;50.860;4.648;2022-12-07T14:08:04;5.60;;;1.40;;
9559;SDS011;4818;50.860;4.648;2022-12-07T14:10:31;6.03;;;1.10;;
9559;SDS011;4818;50.860;4.648;2022-12-07T14:12:59;2.05;;;1.02;;
9559;SDS011;4818;50.860;4.648;2022-12-07T14:15:32;6.47;;;1.42;;
9559;SDS011;4818;50.860;4.648;2022-12-07T14:18:00;7.57;;;1.27;;
9559;SDS011;4818;50.860;4.648;2022-12-07T14:20:32;2.53;;;0.93;;
9559;SDS011;4818;50.860;4.648;2022-12-07T14:22:58;4.13;;;1.20;;
9559;SDS011;4818;50.860;4.648;2022-12-07T14:25:34;6.22;;;0.93;;
9559;SDS011;4818;50.860;4.648;2022-12-07T14:28:23;5.00;;;0.73;;
9559;SDS011;4818;50.860;4.648;2022-12-07T14:30:50;3.63;;;0.77;;
9559;SDS011;4818;50.860;4.648;2022-12-07T14:33:16;6.45;;;1.15;;
9559;SDS011;4818;50.860;4.648;2022-12-07T14:35:42;2.28;;;0.52;;
9559;SDS011;4818;50.860;4.648;2022-12-07T14:38:08;3.78;;;0.70;;
9559;SDS011;4818;50.860;4.648;2022-12-07T14:40:34;1.60;;;0.70;;
9559;SDS011;4818;50.860;4.648;2022-12-07T14:43:01;3.30;;;0.93;;
9559;SDS011;4818;50.860;4.648;2022-12-07T14:45:27;3.85;;;1.52;;
9559;SDS011;4818;50.860;4.648;2022-12-07T14:47:54;3.13;;;1.45;;
9559;SDS011;4818;50.860;4.648;2022-12-07T14:50:20;2.55;;;1.25;;
9559;SDS011;4818;50.860;4.648;2022-12-07T14:52:51;2.08;;;0.93;;
9559;SDS011;4818;50.860;4.648;2022-12-07T14:55:25;1.85;;;0.63;;
9559;SDS011;4818;50.860;4.648;2022-12-07T14:57:51;2.20;;;0.75;;
9559;SDS011;4818;50.860;4.648;2022-12-07T15:00:18;2.20;;;1.08;;
9559;SDS011;4818;50.860;4.648;2022-12-07T15:02:45;4.03;;;0.75;;
9559;SDS011;4818;50.860;4.648;2022-12-07T15:05:11;2.95;;;0.80;;
9559;SDS011;4818;50.860;4.648;2022-12-07T15:07:38;3.67;;;1.00;;
9559;SDS011;4818;50.860;4.648;2022-12-07T15:10:05;6.25;;;1.10;;
9559;SDS011;4818;50.860;4.648;2022-12-07T15:12:31;2.17;;;1.13;;
9559;SDS011;4818;50.860;4.648;2022-12-07T15:14:57;3.58;;;1.05;;
9559;SDS011;4818;50.860;4.648;2022-12-07T15:17:23;6.88;;;1.67;;
9559;SDS011;4818;50.860;4.648;2022-12-07T15:19:49;4.68;;;1.27;;
9559;SDS011;4818;50.860;4.648;2022-12-07T15:22:15;4.38;;;1.42;;
9559;SDS011;4818;50.860;4.648;2022-12-07T15:24:41;2.70;;;0.70;;
9559;SDS011;4818;50.860;4.648;2022-12-07T15:27:07;3.40;;;0.82;;
9559;SDS011;4818;50.860;4.648;2022-12-07T15:29:33;2.55;;;1.02;;
9559;SDS011;4818;50.860;4.648;2022-12-07T15:32:00;3.25;;;1.15;;
9559;SDS011;4818;50.860;4.648;2022-12-07T15:34:26;2.65;;;1.20;;
9559;SDS011;4818;50.860;4.648;2022-12-07T15:36:54;4.15;;;1.38;;
9559;SDS011;4818;50.860;4.648;2022-12-07T15:39:20;9.77;;;2.03;;
9559;SDS011;4818;50.860;4.648;2022-12-07T15:41:47;5.32;;;1.98;;
9559;SDS011;4818;50.860;4.648;2022-12-07T15:44:13;5.25;;;2.08;;
9559;SDS011;4818;50.860;4.648;2022-12-07T15:46:58;7.78;;;2.95;;
9559;SDS011;4818;50.860;4.648;2022-12-07T15:49:25;16.58;;;3.80;;
9559;SDS011;4818;50.860;4.648;2022-12-07T15:51:51;7.82;;;2.97;;
9559;SDS011;4818;50.860;4.648;2022-12-07T15:54:20;9.57;;;2.72;;
9559;SDS011;4818;50.860;4.648;2022-12-07T15:56:46;3.67;;;2.57;;
9559;SDS011;4818;50.860;4.648;2022-12-07T15:59:12;8.38;;;2.88;;
9559;SDS011;4818;50.860;4.648;2022-12-07T16:01:39;4.85;;;2.20;;
9559;SDS011;4818;50.860;4.648;2022-12-07T16:04:05;4.03;;;2.17;;
9559;SDS011;4818;50.860;4.648;2022-12-07T16:06:32;6.07;;;2.33;;
9559;SDS011;4818;50.860;4.648;2022-12-07T16:08:58;5.20;;;2.00;;
9559;SDS011;4818;50.860;4.648;2022-12-07T16:11:24;6.40;;;2.63;;
9559;SDS011;4818;50.860;4.648;2022-12-07T16:13:51;6.45;;;1.73;;
9559;SDS011;4818;50.860;4.648;2022-12-07T16:16:18;6.18;;;1.98;;
9559;SDS011;4818;50.860;4.648;2022-12-07T16:18:46;5.10;;;2.60;;
9559;SDS011;4818;50.860;4.648;2022-12-07T16:21:13;6.20;;;2.50;;
9559;SDS011;4818;50.860;4.648;2022-12-07T16:23:39;4.95;;;2.60;;
9559;SDS011;4818;50.860;4.648;2022-12-07T16:26:06;6.07;;;1.80;;
9559;SDS011;4818;50.860;4.648;2022-12-07T16:28:33;7.90;;;2.40;;
9559;SDS011;4818;50.860;4.648;2022-12-07T16:31:00;8.82;;;1.75;;
9559;SDS011;4818;50.860;4.648;2022-12-07T16:33:26;3.95;;;1.90;;
9559;SDS011;4818;50.860;4.648;2022-12-07T16:35:52;5.53;;;1.40;;
9559;SDS011;4818;50.860;4.648;2022-12-07T16:38:18;6.28;;;1.88;;
9559;SDS011;4818;50.860;4.648;2022-12-07T16:40:44;5.32;;;1.48;;
9559;SDS011;4818;50.860;4.648;2022-12-07T16:43:10;3.63;;;1.60;;
9559;SDS011;4818;50.860;4.648;2022-12-07T16:45:38;6.18;;;1.50;;
9559;SDS011;4818;50.860;4.648;2022-12-07T16:48:04;5.97;;;1.33;;
9559;SDS011;4818;50.860;4.648;2022-12-07T16:50:30;6.38;;;1.90;;
9559;SDS011;4818;50.860;4.648;2022-12-07T16:52:56;2.88;;;1.65;;